Time;durP1;ratioP1;P1;durP2;ratioP2;P2;SDS_P1;SDS_P2;PMS_P1;PMS_P2;Temp;Humidity;BMP_temperature;BMP_pressure;BME280_temperature;BME280_humidity;BME280_pressure;Samples;Min_cycle;Max_cycle;Signal;HPM_P1;HPM_P2
2022/04/25 00:00:14;;;;;;;78.25;52.45;;;18.70;55.90;;;;;;4940002;28;93533;-37
2022/04/25 00:02:40;;;;;;;80.28;52.72;;;18.70;56.00;;;;;;4943748;28;90814;-36
2022/04/25 00:05:06;;;;;;;79.35;52.28;;;18.70;56.10;;;;;;4946154;28;93548;-38
2022/04/25 00:07:32;;;;;;;78.20;52.10;;;18.70;56.10;;;;;;4945819;28;90366;-36
2022/04/25 00:09:58;;;;;;;79.13;52.38;;;18.70;56.10;;;;;;4952486;28;89829;-37
2022/04/25 00:12:23;;;;;;;79.75;53.00;;;18.70;56.10;;;;;;4946105;28;92312;-39
2022/04/25 00:14:49;;;;;;;78.43;52.47;;;18.70;56.00;;;;;;4944770;28;89848;-37
2022/04/25 00:17:15;;;;;;;79.03;52.25;;;18.60;55.90;;;;;;4949063;28;91061;-35
2022/04/25 00:19:40;;;;;;;79.05;52.50;;;18.60;56.00;;;;;;4937200;28;91343;-36
2022/04/25 00:22:06;;;;;;;77.72;51.67;;;18.60;56.10;;;;;;4948663;28;90210;-37
2022/04/25 00:24:32;;;;;;;82.05;52.42;;;18.60;56.10;;;;;;4948144;28;89988;-40
2022/04/25 00:26:57;;;;;;;78.65;51.95;;;18.60;56.10;;;;;;4944616;28;91967;-37
2022/04/25 00:29:23;;;;;;;78.88;52.55;;;18.60;56.20;;;;;;4949257;28;89147;-36
2022/04/25 00:31:49;;;;;;;78.13;52.03;;;18.60;56.10;;;;;;4939469;28;91046;-39
2022/04/25 00:34:15;;;;;;;78.00;52.30;;;18.60;56.20;;;;;;4948675;28;90087;-41
2022/04/25 00:36:40;;;;;;;79.70;53.15;;;18.60;56.20;;;;;;4941931;28;92355;-42
2022/04/25 00:39:06;;;;;;;78.90;52.58;;;18.50;56.10;;;;;;4944552;28;91390;-35
2022/04/25 00:41:33;;;;;;;78.43;52.33;;;18.50;56.00;;;;;;4949271;28;90310;-36
2022/04/25 00:43:58;;;;;;;77.80;52.10;;;18.50;56.00;;;;;;4940634;28;89730;-34
2022/04/25 00:46:26;;;;;;;79.57;52.42;;;18.50;56.00;;;;;;4956475;28;90507;-39
2022/04/25 00:48:52;;;;;;;79.07;52.05;;;18.50;56.20;;;;;;4943466;28;93704;-37
2022/04/25 00:51:19;;;;;;;78.55;51.78;;;18.50;56.10;;;;;;4951268;28;89698;-37
2022/04/25 00:53:46;;;;;;;78.35;52.25;;;18.50;56.10;;;;;;4941217;28;91114;-38
2022/04/25 00:56:15;;;;;;;78.43;51.95;;;18.50;56.20;;;;;;4953280;28;90634;-35
2022/04/25 00:58:43;;;;;;;79.38;52.35;;;18.50;56.20;;;;;;4938870;28;91414;-37
2022/04/25 01:01:09;;;;;;;79.72;52.67;;;18.50;56.20;;;;;;4951386;28;90891;-37
2022/04/25 01:03:35;;;;;;;78.57;52.25;;;18.50;56.20;;;;;;4942960;28;89846;-40
2022/04/25 01:06:01;;;;;;;78.68;52.25;;;18.40;56.20;;;;;;4938109;28;90197;-38
2022/04/25 01:08:26;;;;;;;77.43;52.00;;;18.40;56.10;;;;;;4944643;28;90681;-40
2022/04/25 01:10:52;;;;;;;78.65;52.25;;;18.40;56.10;;;;;;4949657;28;89816;-35
2022/04/25 01:13:18;;;;;;;77.47;52.10;;;18.40;56.10;;;;;;4943220;28;90185;-35
2022/04/25 01:15:44;;;;;;;77.90;51.85;;;18.40;56.10;;;;;;4940938;28;91279;-37
2022/04/25 01:18:10;;;;;;;76.80;51.92;;;18.40;56.20;;;;;;4954188;28;89632;-37
2022/04/25 01:20:35;;;;;;;77.75;51.97;;;18.40;56.10;;;;;;4941973;28;91746;-34
2022/04/25 01:27:15;;;;;;;77.43;51.72;;;18.40;56.20;;;;;;4939017;28;90162;-41
2022/04/25 01:28:38;;;;;;;77.82;51.45;;;18.30;56.20;;;;;;4944650;28;92098;-36
2022/04/25 01:31:03;;;;;;;78.00;52.08;;;18.40;56.30;;;;;;4944051;28;89610;-38
2022/04/25 01:33:29;;;;;;;77.88;51.95;;;18.30;56.20;;;;;;4950461;28;90052;-39
2022/04/25 01:35:55;;;;;;;77.78;51.95;;;18.30;56.20;;;;;;4940477;28;90055;-41
2022/04/25 01:38:21;;;;;;;79.07;52.05;;;18.30;56.10;;;;;;4938541;28;90132;-39
2022/04/25 01:40:47;;;;;;;78.90;52.03;;;18.30;56.80;;;;;;4939468;28;90035;-38
2022/04/25 01:43:12;;;;;;;78.50;52.13;;;18.30;56.30;;;;;;4946574;28;89570;-38
2022/04/25 01:45:41;;;;;;;76.57;51.65;;;18.30;56.20;;;;;;4943361;28;90652;-38
2022/04/25 01:48:07;;;;;;;76.95;51.70;;;18.20;56.10;;;;;;4943734;28;92054;-41
2022/04/25 01:50:32;;;;;;;77.20;51.42;;;18.20;56.20;;;;;;4942166;28;90885;-38
2022/04/25 01:52:58;;;;;;;76.80;51.75;;;18.30;56.30;;;;;;4952121;28;89761;-38
2022/04/25 01:55:24;;;;;;;77.90;51.47;;;18.30;56.00;;;;;;4952161;28;90742;-38
2022/04/25 01:57:49;;;;;;;76.97;51.45;;;18.20;56.10;;;;;;4944591;28;90220;-38
2022/04/25 02:00:15;;;;;;;78.90;52.08;;;18.20;56.10;;;;;;4944919;28;95589;-37
2022/04/25 02:02:41;;;;;;;78.00;51.88;;;18.20;56.20;;;;;;4938517;28;90234;-40
2022/04/25 02:05:07;;;;;;;78.03;52.33;;;18.20;56.10;;;;;;4937358;28;92854;-35
2022/04/25 02:07:33;;;;;;;77.32;51.85;;;18.20;56.20;;;;;;4950599;28;91332;-38
2022/04/25 02:09:59;;;;;;;76.88;51.92;;;18.20;56.00;;;;;;4940862;28;90179;-39
2022/04/25 02:12:24;;;;;;;78.10;51.85;;;18.20;56.10;;;;;;4945249;28;90576;-38
2022/04/25 02:14:50;;;;;;;77.53;51.60;;;18.10;56.10;;;;;;4939390;28;94090;-38
2022/04/25 02:17:16;;;;;;;77.13;51.58;;;18.10;56.10;;;;;;4949066;28;90774;-40
2022/04/25 02:19:44;;;;;;;78.60;51.97;;;18.10;56.10;;;;;;4940139;28;89953;-36
2022/04/25 02:22:10;;;;;;;78.32;51.95;;;18.10;56.00;;;;;;4944157;28;89964;-39
2022/04/25 02:24:40;;;;;;;76.63;51.53;;;18.10;56.10;;;;;;4936206;28;90860;-38
2022/04/25 02:27:06;;;;;;;77.88;51.85;;;18.10;56.00;;;;;;4948365;28;89896;-36
2022/04/25 02:29:33;;;;;;;78.18;51.80;;;18.10;56.00;;;;;;4941000;28;90288;-40
2022/04/25 02:32:00;;;;;;;77.35;51.80;;;18.00;56.10;;;;;;4955358;28;89382;-36
2022/04/25 02:34:27;;;;;;;77.60;52.10;;;18.00;56.20;;;;;;4945434;28;90231;-41
2022/04/25 02:36:55;;;;;;;78.75;51.55;;;18.00;56.00;;;;;;4943413;28;91034;-39
2022/04/25 02:39:24;;;;;;;76.38;51.58;;;18.00;56.20;;;;;;4939278;28;93206;-39
2022/04/25 02:41:51;;;;;;;77.57;51.85;;;18.00;56.20;;;;;;4951202;28;90013;-37
2022/04/25 02:44:17;;;;;;;78.60;52.13;;;18.00;56.20;;;;;;4939644;28;90095;-40
2022/04/25 02:46:43;;;;;;;77.40;51.97;;;18.00;56.70;;;;;;4942265;28;90460;-41
2022/04/25 02:49:09;;;;;;;76.20;51.75;;;18.00;56.20;;;;;;4945618;28;89755;-35
2022/04/25 02:51:34;;;;;;;76.40;51.28;;;18.00;56.20;;;;;;4951266;28;89906;-40
2022/04/25 02:54:00;;;;;;;76.53;51.63;;;18.00;56.20;;;;;;4943344;28;90350;-41
2022/04/25 02:56:25;;;;;;;77.55;51.92;;;17.90;55.90;;;;;;4942011;28;91612;-38
2022/04/25 02:58:51;;;;;;;77.50;52.00;;;17.90;56.20;;;;;;4936044;28;89680;-39
2022/04/25 03:01:17;;;;;;;77.07;51.72;;;17.90;56.10;;;;;;4941035;28;91970;-39
2022/04/25 03:03:43;;;;;;;78.18;51.42;;;17.90;56.10;;;;;;4943732;28;91683;-38
2022/04/25 03:06:09;;;;;;;77.05;51.75;;;17.90;56.20;;;;;;4939525;28;91051;-37
2022/04/25 03:08:36;;;;;;;76.70;51.75;;;17.90;56.30;;;;;;4941942;28;90409;-41
2022/04/25 03:11:08;;;;;;;76.70;51.63;;;17.90;56.30;;;;;;4940252;28;94858;-37
2022/04/25 03:13:35;;;;;;;75.95;51.38;;;17.90;56.30;;;;;;4941077;28;91144;-39
2022/04/25 03:16:02;;;;;;;76.65;51.30;;;17.90;56.20;;;;;;4941420;28;90823;-36
2022/04/25 03:18:29;;;;;;;77.20;52.00;;;17.80;56.20;;;;;;4947890;28;90064;-39
2022/04/25 03:20:55;;;;;;;77.40;51.83;;;17.90;56.20;;;;;;4947132;28;89327;-39
2022/04/25 03:23:22;;;;;;;77.80;51.53;;;17.80;56.20;;;;;;4946309;28;90454;-40
2022/04/25 03:25:49;;;;;;;78.03;51.67;;;17.80;56.20;;;;;;4946934;28;90013;-37
2022/04/25 03:28:15;;;;;;;75.88;51.40;;;17.80;56.10;;;;;;4943789;28;91661;-38
2022/04/25 03:30:41;;;;;;;77.78;51.85;;;17.80;56.30;;;;;;4939213;28;90031;-39
2022/04/25 03:33:08;;;;;;;78.95;51.95;;;17.80;56.30;;;;;;4950213;28;90653;-36
2022/04/25 03:35:34;;;;;;;77.53;52.03;;;17.80;56.20;;;;;;4955484;28;90562;-37
2022/04/25 03:38:00;;;;;;;76.65;51.28;;;17.80;56.40;;;;;;4946342;28;91481;-41
2022/04/25 03:40:26;;;;;;;77.18;51.88;;;17.80;56.20;;;;;;4948452;28;90637;-38
2022/04/25 03:42:53;;;;;;;77.65;51.35;;;17.80;56.20;;;;;;4943952;28;90627;-38
2022/04/25 03:45:19;;;;;;;76.32;51.53;;;17.70;56.10;;;;;;4942679;28;90188;-38
2022/04/25 03:47:45;;;;;;;76.30;51.63;;;17.80;56.30;;;;;;4947458;28;91587;-41
2022/04/25 03:50:13;;;;;;;77.15;51.85;;;17.70;56.20;;;;;;4950390;28;90209;-36
2022/04/25 03:52:41;;;;;;;77.35;51.78;;;17.70;56.80;;;;;;4944721;28;91087;-39
2022/04/25 03:57:54;;;;;;;77.03;51.80;;;17.80;56.30;;;;;;4952691;28;89901;-37
2022/04/25 04:00:20;;;;;;;78.07;51.33;;;17.70;56.30;;;;;;4951477;28;89543;-36
2022/04/25 04:02:46;;;;;;;77.10;51.78;;;17.70;56.30;;;;;;4948787;28;90605;-40
2022/04/25 04:05:13;;;;;;;77.03;51.65;;;17.70;56.30;;;;;;4936868;28;97048;-39
2022/04/25 04:07:39;;;;;;;77.47;51.50;;;17.70;56.30;;;;;;4945797;28;90140;-38
2022/04/25 04:10:05;;;;;;;77.45;51.63;;;17.70;56.20;;;;;;4946551;28;89243;-37
2022/04/25 04:12:32;;;;;;;76.18;51.58;;;17.70;56.30;;;;;;4946385;28;90629;-37
2022/04/25 04:14:58;;;;;;;77.03;51.63;;;17.70;56.40;;;;;;4933937;28;89839;-38
2022/04/25 04:17:25;;;;;;;77.70;51.78;;;17.70;56.30;;;;;;4948361;28;90969;-40
2022/04/25 04:19:52;;;;;;;78.63;51.72;;;17.60;56.30;;;;;;4948003;28;91607;-36
2022/04/25 04:22:19;;;;;;;77.57;51.60;;;17.60;56.30;;;;;;4948886;28;89830;-41
2022/04/25 04:24:45;;;;;;;77.70;51.92;;;17.60;56.30;;;;;;4942622;28;92553;-34
2022/04/25 04:27:11;;;;;;;77.90;52.33;;;17.60;56.30;;;;;;4950001;28;90321;-38
2022/04/25 04:29:36;;;;;;;76.90;51.47;;;17.60;56.30;;;;;;4937392;28;90024;-37
2022/04/25 04:32:06;;;;;;;77.30;51.72;;;17.60;56.30;;;;;;4937072;28;90436;-37
2022/04/25 04:34:32;;;;;;;76.93;51.65;;;17.60;56.30;;;;;;4938890;28;89894;-39
2022/04/25 04:36:59;;;;;;;77.15;51.40;;;17.60;56.40;;;;;;4943731;28;89980;-37
2022/04/25 04:39:25;;;;;;;76.95;51.58;;;17.50;56.40;;;;;;4940331;28;91053;-38
2022/04/25 04:41:50;;;;;;;76.75;51.60;;;17.60;56.50;;;;;;4945066;28;91618;-38
2022/04/25 04:44:16;;;;;;;78.30;51.70;;;17.60;56.50;;;;;;4942659;28;91421;-39
2022/04/25 04:46:42;;;;;;;77.97;51.83;;;17.60;56.50;;;;;;4946999;28;92852;-40
2022/04/25 04:49:07;;;;;;;76.88;51.63;;;17.60;56.40;;;;;;4955795;28;89972;-38
2022/04/25 04:51:33;;;;;;;76.63;51.63;;;17.60;56.40;;;;;;4934160;28;91065;-35
2022/04/25 04:53:59;;;;;;;79.95;51.72;;;17.50;56.30;;;;;;4951231;28;90809;-36
2022/04/25 04:56:32;;;;;;;76.82;51.92;;;17.50;56.40;;;;;;4954202;28;90822;-36
2022/04/25 04:58:59;;;;;;;76.68;52.17;;;17.50;56.50;;;;;;4947426;28;89179;-37
2022/04/25 05:01:26;;;;;;;83.82;51.90;;;17.50;56.70;;;;;;4940382;28;90644;-39
2022/04/25 05:03:58;;;;;;;77.95;52.30;;;17.50;56.70;;;;;;4939157;28;91080;-38
2022/04/25 05:06:25;;;;;;;79.93;52.45;;;17.50;56.80;;;;;;4939574;28;92693;-37
2022/04/25 05:08:51;;;;;;;81.68;52.38;;;17.50;56.80;;;;;;4936419;28;90104;-39
2022/04/25 05:11:17;;;;;;;78.57;52.88;;;17.50;57.00;;;;;;4947577;28;89990;-36
2022/04/25 05:13:43;;;;;;;78.15;52.40;;;17.50;57.00;;;;;;4935655;28;92005;-41
2022/04/25 05:16:08;;;;;;;81.28;53.40;;;17.50;57.00;;;;;;4950282;28;90867;-35
2022/04/25 05:18:34;;;;;;;93.75;64.47;;;17.50;56.70;;;;;;4944200;28;89860;-36
2022/04/25 05:21:01;;;;;;;112.78;83.20;;;17.50;56.30;;;;;;4937967;28;90331;-38
2022/04/25 05:23:27;;;;;;;167.07;144.00;;;17.50;56.90;;;;;;4940922;28;89655;-36
2022/04/25 05:25:54;;;;;;;141.80;114.55;;;17.50;57.40;;;;;;4937952;28;89892;-37
2022/04/25 05:28:20;;;;;;;138.93;112.78;;;17.50;57.50;;;;;;4947579;28;90473;-37
2022/04/25 05:30:46;;;;;;;142.25;112.28;;;17.60;57.50;;;;;;4936473;28;91290;-37
2022/04/25 05:33:13;;;;;;;138.98;111.50;;;17.50;57.20;;;;;;4935878;28;90768;-39
2022/04/25 05:35:38;;;;;;;139.57;112.07;;;17.60;57.20;;;;;;4942461;28;90995;-39
2022/04/25 05:38:10;;;;;;;141.27;111.50;;;17.60;57.10;;;;;;4939203;28;91120;-36
2022/04/25 05:40:36;;;;;;;136.15;108.35;;;17.60;57.00;;;;;;4943286;28;90718;-39
2022/04/25 05:43:03;;;;;;;146.23;111.30;;;17.60;56.90;;;;;;4939127;28;90342;-37
2022/04/25 05:45:29;;;;;;;139.85;110.95;;;17.60;56.80;;;;;;4951748;28;90436;-35
2022/04/25 05:47:57;;;;;;;138.45;109.43;;;17.60;56.80;;;;;;4951391;28;89047;-36
2022/04/25 05:53:12;;;;;;;132.82;103.25;;;17.50;56.40;;;;;;4939325;28;89950;-38
2022/04/25 05:55:38;;;;;;;128.15;98.22;;;17.50;56.30;;;;;;4943266;28;91315;-37
2022/04/25 05:58:06;;;;;;;126.45;94.82;;;17.60;55.90;;;;;;4952744;28;89443;-37
2022/04/25 06:00:33;;;;;;;125.65;92.78;;;17.60;55.40;;;;;;4948587;28;96954;-41
2022/04/25 06:03:00;;;;;;;130.00;89.72;;;17.60;54.90;;;;;;4936769;28;92577;-40
2022/04/25 06:05:27;;;;;;;117.22;86.03;;;17.60;54.60;;;;;;4948801;28;90490;-39
2022/04/25 06:07:53;;;;;;;115.55;85.40;;;17.60;54.40;;;;;;4937415;28;91149;-38
2022/04/25 06:10:22;;;;;;;116.93;82.75;;;17.70;54.20;;;;;;4935010;28;90953;-37
2022/04/25 06:12:50;;;;;;;110.35;81.00;;;17.60;54.00;;;;;;4944294;28;90117;-38
2022/04/25 06:15:16;;;;;;;113.88;79.07;;;17.60;53.90;;;;;;4944894;28;92663;-39
2022/04/25 06:17:42;;;;;;;111.78;78.07;;;17.70;53.90;;;;;;4940153;28;89946;-36
2022/04/25 06:20:09;;;;;;;106.97;75.05;;;17.70;53.80;;;;;;4946924;28;91198;-36
2022/04/25 06:22:37;;;;;;;104.53;75.53;;;17.70;53.90;;;;;;4933125;28;91015;-39
2022/04/25 06:25:03;;;;;;;106.15;75.95;;;17.70;53.80;;;;;;4946806;28;91389;-37
2022/04/25 06:27:29;;;;;;;104.78;73.95;;;17.70;53.70;;;;;;4950190;28;91126;-40
2022/04/25 06:29:56;;;;;;;101.90;73.13;;;17.70;53.60;;;;;;4945933;28;90485;-40
2022/04/25 06:32:22;;;;;;;97.60;71.15;;;17.70;53.40;;;;;;4948718;28;91350;-39
2022/04/25 06:34:48;;;;;;;99.30;70.35;;;17.70;53.30;;;;;;4946474;28;89939;-38
2022/04/25 06:37:14;;;;;;;98.30;67.28;;;17.80;53.20;;;;;;4944690;28;89603;-38
2022/04/25 06:39:40;;;;;;;95.18;67.13;;;17.80;53.00;;;;;;4929036;28;95366;-42
2022/04/25 06:42:08;;;;;;;96.63;66.47;;;17.80;52.90;;;;;;4943011;28;89906;-35
2022/04/25 06:44:34;;;;;;;95.55;66.43;;;17.80;52.70;;;;;;4943695;28;92106;-36
2022/04/25 06:46:59;;;;;;;92.63;65.25;;;17.80;53.40;;;;;;4937397;28;90969;-39
2022/04/25 06:49:25;;;;;;;93.07;64.18;;;17.80;52.60;;;;;;4946834;28;90087;-40
2022/04/25 06:51:56;;;;;;;92.07;63.15;;;17.80;52.60;;;;;;4944923;28;90415;-36
2022/04/25 06:54:26;;;;;;;95.15;63.22;;;17.80;52.40;;;;;;4944913;28;90157;-37
2022/04/25 06:56:55;;;;;;;93.80;62.50;;;17.80;52.50;;;;;;4949528;28;90117;-40
2022/04/25 06:59:22;;;;;;;89.72;61.75;;;17.80;52.20;;;;;;4939779;28;93085;-41
2022/04/25 07:01:50;;;;;;;90.55;61.03;;;17.80;52.20;;;;;;4942733;28;89853;-36
2022/04/25 07:04:16;;;;;;;89.95;60.92;;;17.90;52.40;;;;;;4943828;28;89951;-36
2022/04/25 07:06:43;;;;;;;89.40;59.83;;;17.90;52.30;;;;;;4945309;28;90208;-39
2022/04/25 07:09:12;;;;;;;92.55;59.45;;;17.90;52.30;;;;;;4951814;28;91389;-40
2022/04/25 07:11:41;;;;;;;88.47;60.38;;;17.90;52.10;;;;;;4949824;28;90459;-38
2022/04/25 07:14:06;;;;;;;88.22;59.03;;;17.90;52.10;;;;;;4941541;28;91608;-41
2022/04/25 07:16:32;;;;;;;86.72;58.03;;;18.00;52.10;;;;;;4939705;28;89597;-38
2022/04/25 07:18:58;;;;;;;88.07;58.92;;;18.00;51.90;;;;;;4939373;28;91197;-39
2022/04/25 07:29:36;;;;;;;87.03;58.03;;;18.10;51.40;;;;;;4943232;28;89858;-38
2022/04/25 07:32:02;;;;;;;88.03;57.10;;;18.10;51.20;;;;;;4951771;28;89618;-37
2022/04/25 07:34:27;;;;;;;87.90;56.80;;;18.10;51.20;;;;;;4946316;28;92025;-40
2022/04/25 07:36:53;;;;;;;84.95;57.25;;;18.10;51.10;;;;;;4947559;28;91491;-36
2022/04/25 07:39:20;;;;;;;85.50;56.55;;;18.10;51.00;;;;;;4945870;28;98700;-35
2022/04/25 07:41:47;;;;;;;86.47;56.45;;;18.10;51.10;;;;;;4941834;28;90634;-36
2022/04/25 07:44:13;;;;;;;87.22;56.10;;;18.10;51.20;;;;;;4931636;28;95529;-38
2022/04/25 07:46:41;;;;;;;87.70;56.13;;;18.10;51.00;;;;;;4954901;28;89717;-38
2022/04/25 07:49:08;;;;;;;85.70;56.05;;;18.20;51.20;;;;;;4949463;28;91836;-36
2022/04/25 07:51:33;;;;;;;88.32;56.08;;;18.20;51.00;;;;;;4944001;28;89146;-38
2022/04/25 07:53:59;;;;;;;88.25;56.00;;;18.30;51.20;;;;;;4939459;28;89642;-37
2022/04/25 07:56:26;;;;;;;90.63;56.25;;;18.30;51.20;;;;;;4953179;28;91683;-38
2022/04/25 07:58:52;;;;;;;85.53;56.03;;;18.30;50.90;;;;;;4945822;28;91180;-37
2022/04/25 08:01:17;;;;;;;88.38;56.05;;;18.30;51.00;;;;;;4953610;28;90995;-36
2022/04/25 08:03:43;;;;;;;83.57;54.92;;;18.40;51.10;;;;;;4945292;28;91757;-37
2022/04/25 08:06:10;;;;;;;83.85;55.40;;;18.30;50.60;;;;;;4945309;28;90732;-39
2022/04/25 08:08:36;;;;;;;85.78;55.15;;;18.30;50.70;;;;;;4938342;28;89782;-36
2022/04/25 08:11:02;;;;;;;83.60;54.40;;;18.30;50.90;;;;;;4942686;28;94824;-37
2022/04/25 08:18:57;;;;;;;90.38;55.05;;;18.50;50.70;;;;;;4949114;28;89605;-39
2022/04/25 08:21:23;;;;;;;84.43;54.78;;;18.50;50.70;;;;;;4948296;28;90335;-38
2022/04/25 08:23:48;;;;;;;90.35;55.05;;;18.60;50.80;;;;;;4943358;28;92377;-39
2022/04/25 08:26:14;;;;;;;87.30;54.72;;;18.60;50.70;;;;;;4946135;28;89820;-40
2022/04/25 08:28:41;;;;;;;88.63;54.80;;;18.60;50.80;;;;;;4942676;28;89897;-40
2022/04/25 08:31:09;;;;;;;84.20;54.25;;;18.60;50.80;;;;;;4953430;28;89913;-40
2022/04/25 08:33:36;;;;;;;88.25;54.75;;;18.70;51.00;;;;;;4942668;28;92168;-37
2022/04/25 08:36:03;;;;;;;101.03;55.75;;;18.70;51.30;;;;;;4944612;28;91133;-37
2022/04/25 08:38:29;;;;;;;103.45;56.38;;;18.70;51.40;;;;;;4939738;28;90164;-39
2022/04/25 08:40:55;;;;;;;105.30;56.20;;;18.70;51.40;;;;;;4948578;28;100127;-40
2022/04/25 08:43:22;;;;;;;97.90;55.58;;;18.70;51.30;;;;;;4951827;28;90961;-37
2022/04/25 08:45:49;;;;;;;99.05;55.92;;;18.80;51.30;;;;;;4946382;28;89959;-41
2022/04/25 08:48:17;;;;;;;98.38;55.92;;;18.80;51.50;;;;;;4940305;28;91891;-43
2022/04/25 08:50:44;;;;;;;100.85;56.53;;;18.90;51.40;;;;;;4949492;28;90797;-39
2022/04/25 08:53:12;;;;;;;101.35;56.22;;;18.90;51.30;;;;;;4948871;28;90202;-40
2022/04/25 08:55:39;;;;;;;106.95;57.03;;;18.90;51.30;;;;;;4946591;28;92547;-38
2022/04/25 08:58:06;;;;;;;109.18;56.35;;;18.90;51.20;;;;;;4945293;28;91632;-35
2022/04/25 09:00:32;;;;;;;109.30;56.20;;;18.90;51.50;;;;;;4953561;28;90182;-35
2022/04/25 09:02:59;;;;;;;101.13;56.25;;;18.90;51.50;;;;;;4955936;28;91298;-39
2022/04/25 09:05:25;;;;;;;104.47;56.22;;;18.90;51.60;;;;;;4944481;28;90690;-37
2022/04/25 09:07:52;;;;;;;104.95;55.83;;;18.90;51.30;;;;;;4936818;28;92160;-38
2022/04/25 09:10:19;;;;;;;107.20;56.25;;;18.90;51.10;;;;;;4943910;28;91294;-38
2022/04/25 09:12:46;;;;;;;93.55;55.80;;;18.90;51.40;;;;;;4949864;28;90978;-41
2022/04/25 09:15:12;;;;;;;94.60;55.55;;;18.90;51.50;;;;;;4940094;28;98997;-39
2022/04/25 09:17:39;;;;;;;100.75;56.25;;;18.90;51.40;;;;;;4948469;28;91503;-37
2022/04/25 09:20:09;;;;;;;96.30;55.42;;;18.90;51.40;;;;;;4939685;28;90193;-39
2022/04/25 09:22:37;;;;;;;90.13;54.92;;;18.90;51.40;;;;;;4941591;28;89962;-40
2022/04/25 09:25:07;;;;;;;90.68;55.25;;;18.90;51.40;;;;;;4944075;28;90478;-34
2022/04/25 09:27:34;;;;;;;93.65;55.58;;;18.90;51.40;;;;;;4951250;28;90198;-41
2022/04/25 09:30:13;;;;;;;98.15;55.72;;;18.90;51.30;;;;;;4942313;28;89257;-38
2022/04/25 09:32:39;;;;;;;100.13;55.67;;;19.00;51.10;;;;;;4945163;28;91528;-37
2022/04/25 09:35:32;;;;;;;98.82;55.95;;;19.00;50.70;;;;;;4930954;28;90081;-37
2022/04/25 09:38:00;;;;;;;93.35;55.28;;;19.00;50.70;;;;;;4939446;28;92305;-40
2022/04/25 09:40:29;;;;;;;94.22;55.45;;;19.00;50.70;;;;;;4942927;28;92422;-37
2022/04/25 09:43:29;;;;;;;92.55;54.80;;;19.00;50.70;;;;;;4946502;28;89715;-39
2022/04/25 09:46:06;;;;;;;94.28;55.35;;;19.00;50.70;;;;;;4947397;28;89655;-38
2022/04/25 09:48:32;;;;;;;87.97;54.55;;;18.90;50.80;;;;;;4943413;28;90150;-36
2022/04/25 09:51:04;;;;;;;88.55;53.90;;;18.90;50.80;;;;;;4947891;28;90478;-36
2022/04/25 09:53:55;;;;;;;90.80;54.78;;;18.90;51.00;;;;;;4949426;28;90008;-38
2022/04/25 09:56:28;;;;;;;89.07;54.35;;;18.90;51.00;;;;;;4946790;28;90351;-38
2022/04/25 09:59:01;;;;;;;90.40;54.47;;;18.90;51.00;;;;;;4953388;28;91709;-39
2022/04/25 10:01:29;;;;;;;93.00;54.90;;;18.90;50.90;;;;;;4950059;28;89661;-37
2022/04/25 10:03:55;;;;;;;88.60;54.78;;;19.00;50.70;;;;;;4938817;28;90995;-37
2022/04/25 10:06:22;;;;;;;87.95;54.42;;;19.10;50.60;;;;;;4943625;28;90510;-36
2022/04/25 10:08:49;;;;;;;87.28;54.28;;;19.10;50.50;;;;;;4938362;28;90128;-41
2022/04/25 10:11:18;;;;;;;86.43;54.30;;;19.10;50.60;;;;;;4934119;28;94630;-37
2022/04/25 10:13:47;;;;;;;85.30;54.03;;;19.10;51.00;;;;;;4935008;28;89973;-37
2022/04/25 10:16:13;;;;;;;85.28;53.95;;;19.10;51.20;;;;;;4928006;28;89913;-40
2022/04/25 10:18:39;;;;;;;87.85;54.30;;;19.00;51.60;;;;;;4945959;28;90572;-36
2022/04/25 10:21:07;;;;;;;86.82;53.80;;;19.00;52.10;;;;;;4937563;28;90420;-39
2022/04/25 10:23:34;;;;;;;84.88;53.75;;;19.00;52.60;;;;;;4942247;28;89750;-40
2022/04/25 10:26:01;;;;;;;92.35;53.95;;;19.00;52.70;;;;;;4946040;28;90128;-37
2022/04/25 10:29:07;;;;;;;84.38;54.28;;;19.00;53.00;;;;;;4943625;28;92512;-41
2022/04/25 10:31:38;;;;;;;82.90;53.55;;;19.00;53.20;;;;;;4941784;28;91849;-41
2022/04/25 10:34:05;;;;;;;81.68;53.17;;;18.90;53.20;;;;;;4939425;28;89842;-40
2022/04/25 10:36:39;;;;;;;82.70;53.63;;;18.90;53.20;;;;;;4932153;28;89943;-35
2022/04/25 10:39:13;;;;;;;83.05;53.20;;;18.90;53.30;;;;;;4944690;28;91955;-41
2022/04/25 10:44:37;;;;;;;82.25;53.00;;;18.90;53.20;;;;;;4940566;28;89900;-37
2022/04/25 10:47:05;;;;;;;83.47;53.28;;;18.90;53.30;;;;;;4946002;28;92621;-37
2022/04/25 10:49:35;;;;;;;88.10;53.17;;;18.90;53.30;;;;;;4950874;28;90022;-41
2022/04/25 10:52:02;;;;;;;82.60;53.47;;;18.90;53.30;;;;;;4949029;28;90435;-37
2022/04/25 10:54:49;;;;;;;82.50;53.42;;;19.00;53.90;;;;;;4937695;28;91088;-39
2022/04/25 10:57:16;;;;;;;84.57;53.55;;;19.00;53.20;;;;;;4947617;28;89886;-39
2022/04/25 10:59:43;;;;;;;82.32;53.25;;;19.00;53.10;;;;;;4940291;28;90319;-38
2022/04/25 11:02:21;;;;;;;81.13;53.25;;;19.00;52.90;;;;;;4937874;28;90228;-39
2022/04/25 11:05:07;;;;;;;86.53;53.50;;;19.00;52.90;;;;;;4945309;28;89929;-35
2022/04/25 11:07:35;;;;;;;82.25;52.80;;;18.90;52.70;;;;;;4941332;28;89958;-38
2022/04/25 11:10:01;;;;;;;84.47;53.00;;;18.90;52.70;;;;;;4933912;28;90522;-40
2022/04/25 11:12:58;;;;;;;81.63;53.15;;;18.90;52.70;;;;;;4927741;28;90222;-34
2022/04/25 11:15:51;;;;;;;83.18;53.35;;;18.90;52.80;;;;;;4946242;28;90380;-39
2022/04/25 11:18:34;;;;;;;81.25;52.95;;;19.00;52.70;;;;;;4931799;28;91867;-39
2022/04/25 11:21:16;;;;;;;84.22;52.95;;;19.00;52.70;;;;;;4934547;28;92483;-37
2022/04/25 11:23:44;;;;;;;83.03;53.45;;;19.10;52.60;;;;;;4939232;28;91419;-38
2022/04/25 11:26:33;;;;;;;83.32;53.13;;;19.10;52.40;;;;;;4951534;28;90690;-37
2022/04/25 11:29:08;;;;;;;85.22;53.53;;;19.10;52.40;;;;;;4942829;28;92565;-39
2022/04/25 11:31:35;;;;;;;82.93;53.53;;;19.10;52.40;;;;;;4942461;28;90779;-36
2022/04/25 11:34:03;;;;;;;83.47;53.70;;;19.10;52.20;;;;;;4940013;28;92468;-38
2022/04/25 11:36:31;;;;;;;81.63;53.40;;;19.10;52.20;;;;;;4937243;28;90178;-36
2022/04/25 11:41:42;;;;;;;82.93;53.22;;;19.10;52.30;;;;;;4947331;28;91297;-39
2022/04/25 11:44:09;;;;;;;83.55;53.53;;;19.10;52.20;;;;;;4947603;28;90298;-37
2022/04/25 11:46:36;;;;;;;82.38;53.17;;;19.10;52.10;;;;;;4946602;28;91497;-39
2022/04/25 11:49:03;;;;;;;83.95;53.80;;;19.20;52.30;;;;;;4948960;28;89992;-39
2022/04/25 11:51:32;;;;;;;81.38;53.55;;;19.20;52.00;;;;;;4952635;28;90045;-38
2022/04/25 11:54:00;;;;;;;82.18;54.03;;;19.20;52.00;;;;;;4943631;28;90322;-38
2022/04/25 11:56:27;;;;;;;82.10;53.40;;;19.20;51.90;;;;;;4952027;28;90411;-39
2022/04/25 11:58:54;;;;;;;83.40;53.63;;;19.20;52.10;;;;;;4942331;28;92750;-38
2022/04/25 12:01:42;;;;;;;81.22;53.20;;;19.20;51.80;;;;;;4943770;28;91020;-39
2022/04/25 12:04:32;;;;;;;82.10;53.75;;;19.20;52.00;;;;;;4944073;28;90371;-37
2022/04/25 12:07:07;;;;;;;82.93;53.90;;;19.20;52.00;;;;;;4946041;28;90448;-37
2022/04/25 12:18:13;;;;;;;82.70;53.95;;;19.10;52.80;;;;;;4948121;28;91521;-39
2022/04/25 12:20:40;;;;;;;83.57;54.60;;;19.10;52.60;;;;;;4955735;28;89922;-36
2022/04/25 12:23:06;;;;;;;83.95;54.20;;;19.10;52.70;;;;;;4946372;28;91771;-38
2022/04/25 12:25:38;;;;;;;83.22;54.13;;;19.10;52.70;;;;;;4951896;28;90586;-38
2022/04/25 12:28:13;;;;;;;84.40;53.83;;;19.10;52.80;;;;;;4944618;28;90279;-36
2022/04/25 12:30:50;;;;;;;88.10;54.85;;;19.10;52.90;;;;;;4941910;28;89479;-38
2022/04/25 12:33:18;;;;;;;89.40;54.47;;;19.10;53.10;;;;;;4945177;28;91567;-37
2022/04/25 12:35:45;;;;;;;90.90;54.60;;;19.10;53.50;;;;;;4946616;28;89729;-35
2022/04/25 12:38:37;;;;;;;87.47;54.90;;;19.10;53.50;;;;;;4933644;28;91135;-39
2022/04/25 12:41:03;;;;;;;85.63;54.28;;;19.10;54.10;;;;;;4949580;28;90022;-35
2022/04/25 12:43:41;;;;;;;83.20;54.35;;;19.10;53.90;;;;;;4935821;28;91928;-36
2022/04/25 12:46:07;;;;;;;85.55;54.75;;;19.20;53.60;;;;;;4940956;28;90272;-36
2022/04/25 12:48:57;;;;;;;86.78;55.10;;;19.20;53.90;;;;;;4945855;28;90613;-36
2022/04/25 12:51:27;;;;;;;89.32;55.13;;;19.30;53.40;;;;;;4938083;28;90954;-39
2022/04/25 12:53:53;;;;;;;88.95;56.03;;;19.40;54.00;;;;;;4932723;28;90161;-36
2022/04/25 12:56:27;;;;;;;91.15;56.72;;;19.40;54.60;;;;;;4945689;28;89513;-36
2022/04/25 12:58:54;;;;;;;94.10;56.33;;;19.50;54.70;;;;;;4942467;28;91545;-38
2022/04/25 13:01:45;;;;;;;90.75;56.70;;;19.50;55.10;;;;;;4950407;28;89651;-34
2022/04/25 13:04:13;;;;;;;90.75;56.45;;;19.50;55.50;;;;;;4944626;28;92539;-36
2022/04/25 13:06:41;;;;;;;94.70;56.92;;;19.60;55.80;;;;;;4934648;28;91571;-41